Tug Reinauer Twins — WDF8591 — position and weather

sailwx.info

Track history (hours):
 
Tides and Currents Weather Stations Pressure Air Temp Water Temp Dewpoint Dewpoint Depression Visibility Wind Speed Wind Dir Waves Ship Positions

Tug Reinauer Twins

Owner: Reinauer Transportation Co., LLC, Staten Island, NY. More information available from US FCC via Universal Licensing System and Coast Guard Vessel Documentation Center.

Last reported at 2018-Aug-16 08:29 UTC. Time now 2018-Aug-16 08:44 UTC.
Position N 38°34' W 074°46'.

Length 150 m; draft 6.1 m.

Type: . MMSI: 367496470.

Date/timePositionNaut miles runAvg speedWind from/ knotsBaromVisibWave heightAir tempDewpointWater temp
2018-Aug-16 08:29N 38°34' W 074°46'4 9.0
2018-Aug-16 08:00N 38°30' W 074°43'4 8.3
2018-Aug-16 07:30N 38°26' W 074°42'5 9.3
2018-Aug-16 07:00N 38°22' W 074°45'12 9.0
2018-Aug-16 05:41N 38°12' W 074°52'3 9.2
2018-Aug-16 05:21N 38°09' W 074°54'  
2018-Aug-13 03:43N 27°07' W 080°03'210.1
2018-Aug-13 03:30N 27°05' W 080°02'510.5
2018-Aug-13 03:00N 26°60' W 080°01'611.2
2018-Aug-13 02:28N 26°54' W 080°00'611.9
2018-Aug-13 02:00N 26°48' W 079°59'611.6
2018-Aug-13 01:30N 26°43' W 079°59'611.4
2018-Aug-13 01:00N 26°37' W 079°60'611.2
2018-Aug-13 00:30N 26°31' W 080°01'610.9
2018-Aug-12 23:59N 26°26' W 080°01'510.3
2018-Aug-12 23:30N 26°21' W 080°02'611.1
2018-Aug-12 23:00N 26°15' W 080°02'611.1
2018-Aug-12 22:30N 26°10' W 080°03'5 9.0
2018-Aug-12 22:00N 26°06' W 080°05'2 4.0
2018-Aug-12 21:30N 26°06' W 080°07'0 0.1
2018-Aug-12 20:51N 26°06' W 080°07'0 0.0
2018-Aug-12 20:18N 26°06' W 080°07'0 0.0
2018-Aug-12 19:51N 26°06' W 080°07'1 2.1
2018-Aug-12 19:30N 26°06' W 080°07'1 1.4
2018-Aug-12 18:59N 26°06' W 080°07'0 0.0
2018-Aug-12 18:24N 26°06' W 080°07'0 0.0
2018-Aug-12 17:54N 26°06' W 080°07'0 0.0
2018-Aug-12 17:21N 26°06' W 080°07'0 0.0
2018-Aug-12 16:54N 26°06' W 080°07'0 0.0
2018-Aug-12 16:24N 26°06' W 080°07'0 0.0
2018-Aug-12 15:57N 26°06' W 080°07'0 0.0
2018-Aug-12 15:27N 26°06' W 080°07'0 0.0
2018-Aug-12 14:57N 26°06' W 080°07'0 0.0
2018-Aug-12 14:27N 26°06' W 080°07'0 0.0
2018-Aug-12 13:57N 26°06' W 080°07'0 0.0
2018-Aug-12 13:27N 26°06' W 080°07'0 0.0
2018-Aug-12 13:00N 26°06' W 080°07'0 0.0
2018-Aug-12 12:30N 26°06' W 080°07'0 0.0
2018-Aug-12 12:00N 26°06' W 080°07'0 0.0
2018-Aug-12 11:30N 26°06' W 080°07'0 0.0
2018-Aug-12 11:00N 26°06' W 080°07'0 0.0
2018-Aug-12 10:30N 26°06' W 080°07'0 0.0
2018-Aug-12 10:00N 26°06' W 080°07'0 0.0
2018-Aug-12 09:28N 26°06' W 080°07'0 0.0
2018-Aug-12 08:58N 26°06' W 080°07'0 0.0
2018-Aug-12 08:28N 26°06' W 080°07'0 0.0
2018-Aug-12 07:55N 26°06' W 080°07'0 0.0
2018-Aug-12 07:28N 26°06' W 080°07'0 0.0
2018-Aug-12 06:58N 26°06' W 080°07'0 0.0
2018-Aug-12 06:28N 26°06' W 080°07'0 0.0
2018-Aug-12 05:58N 26°06' W 080°07'0 0.0
2018-Aug-12 05:28N 26°06' W 080°07'0 0.0
2018-Aug-12 04:58N 26°06' W 080°07'0 0.0
2018-Aug-12 04:30N 26°06' W 080°07'1 2.0
2018-Aug-12 04:00N 26°06' W 080°06'3 5.7
2018-Aug-12 03:30N 26°04' W 080°04'3 6.7
2018-Aug-12 03:00N 26°00' W 080°04'3 6.6
2018-Aug-12 02:30N 25°57' W 080°04'3 6.5
2018-Aug-12 02:00N 25°54' W 080°04'4 7.1
2018-Aug-12 01:30N 25°50' W 080°04'4 8.2
2018-Aug-12 01:00N 25°46' W 080°03'611.7
2018-Aug-12 00:30N 25°40' W 080°02'611.8
2018-Aug-12 00:00N 25°35' W 080°01'611.9
2018-Aug-11 23:30N 25°29' W 080°01'3711.0
2018-Aug-11 20:11N 24°56' W 080°19'311.1
2018-Aug-11 19:58N 24°54' W 080°21'511.1
2018-Aug-11 19:30N 24°51' W 080°25'611.1
2018-Aug-11 18:59N 24°48' W 080°30'  
2018-Aug-08 01:45N 29°21' W 094°46'0 0.5
2018-Aug-08 01:17N 29°21' W 094°46'0 0.1
2018-Aug-08 00:57N 29°21' W 094°46'0 0.0
2018-Aug-08 00:27N 29°21' W 094°46'0 0.0
2018-Aug-07 21:03N 29°21' W 094°46'0 0.0
2018-Aug-07 20:36N 29°21' W 094°46'0 0.0
2018-Aug-07 20:30N 29°21' W 094°46'0 0.0
2018-Aug-07 19:57N 29°21' W 094°46'0 0.0
2018-Aug-07 19:30N 29°21' W 094°46'0 0.0
2018-Aug-07 18:51N 29°21' W 094°46'0 0.0
2018-Aug-07 18:27N 29°21' W 094°46'0 0.0
2018-Aug-07 17:51N 29°21' W 094°46'0 0.0
2018-Aug-07 17:27N 29°21' W 094°46'0 0.0
2018-Aug-07 16:54N 29°21' W 094°46'0 0.1
2018-Aug-07 16:30N 29°21' W 094°46'0 0.0
2018-Aug-07 16:00N 29°21' W 094°46'0 0.0
2018-Aug-07 15:30N 29°21' W 094°46'0 0.2
2018-Aug-07 14:57N 29°21' W 094°46'0 0.2
2018-Aug-07 14:18N 29°21' W 094°46'0 0.1
2018-Aug-07 14:00N 29°21' W 094°46'0 0.0
2018-Aug-07 13:30N 29°21' W 094°46'3 5.9
2018-Aug-07 13:01N 29°23' W 094°49'7 8.4
2018-Aug-07 12:12N 29°29' W 094°52'2 8.4
2018-Aug-07 12:01N 29°31' W 094°53'4 8.1
2018-Aug-07 11:31N 29°34' W 094°55'4 8.0
2018-Aug-07 10:59N 29°38' W 094°58'4 7.9
2018-Aug-07 10:31N 29°41' W 094°59'3 6.5
2018-Aug-07 10:00N 29°44' W 095°02'4 7.0
2018-Aug-07 09:29N 29°46' W 095°05'3 6.7
2018-Aug-07 08:59N 29°44' W 095°08'3 5.6
2018-Aug-07 08:24N 29°45' W 095°12'0 0.1
2018-Aug-07 08:00N 29°45' W 095°12'0 0.0
2018-Aug-07 01:44N 29°45' W 095°12'0 0.0
2018-Aug-06 15:20N 29°45' W 095°12'0 0.0
2018-Aug-06 14:50N 29°45' W 095°12'  
Track history (hours):
 
Tides and Currents Weather Stations Pressure Air Temp Water Temp Dewpoint Dewpoint Depression Visibility Wind Speed Wind Dir Waves Ship Positions

Tug Reinauer Twins

Owner: Reinauer Transportation Co., LLC, Staten Island, NY. More information available from US FCC via Universal Licensing System and Coast Guard Vessel Documentation Center.

Last reported at 2018-Aug-16 08:29 UTC. Time now 2018-Aug-16 08:44 UTC.
Position N 38°34' W 074°46'.

Length 150 m; draft 6.1 m.

Type: . MMSI: 367496470.

Date/timePositionNaut miles runAvg speedWind from/ knotsBaromVisibWave heightAir tempDewpointWater temp
2018-Aug-16 08:29N 38°34' W 074°46'4 9.0
2018-Aug-16 08:00N 38°30' W 074°43'4 8.3
2018-Aug-16 07:30N 38°26' W 074°42'5 9.3
2018-Aug-16 07:00N 38°22' W 074°45'12 9.0
2018-Aug-16 05:41N 38°12' W 074°52'3 9.2
2018-Aug-16 05:21N 38°09' W 074°54'  
2018-Aug-13 03:43N 27°07' W 080°03'210.1
2018-Aug-13 03:30N 27°05' W 080°02'510.5
2018-Aug-13 03:00N 26°60' W 080°01'611.2
2018-Aug-13 02:28N 26°54' W 080°00'611.9
2018-Aug-13 02:00N 26°48' W 079°59'611.6
2018-Aug-13 01:30N 26°43' W 079°59'611.4
2018-Aug-13 01:00N 26°37' W 079°60'611.2
2018-Aug-13 00:30N 26°31' W 080°01'610.9
2018-Aug-12 23:59N 26°26' W 080°01'510.3
2018-Aug-12 23:30N 26°21' W 080°02'611.1
2018-Aug-12 23:00N 26°15' W 080°02'611.1
2018-Aug-12 22:30N 26°10' W 080°03'5 9.0
2018-Aug-12 22:00N 26°06' W 080°05'2 4.0
2018-Aug-12 21:30N 26°06' W 080°07'0 0.1
2018-Aug-12 20:51N 26°06' W 080°07'0 0.0
2018-Aug-12 20:18N 26°06' W 080°07'0 0.0
2018-Aug-12 19:51N 26°06' W 080°07'1 2.1
2018-Aug-12 19:30N 26°06' W 080°07'1 1.4
2018-Aug-12 18:59N 26°06' W 080°07'0 0.0
2018-Aug-12 18:24N 26°06' W 080°07'0 0.0
2018-Aug-12 17:54N 26°06' W 080°07'0 0.0
2018-Aug-12 17:21N 26°06' W 080°07'0 0.0
2018-Aug-12 16:54N 26°06' W 080°07'0 0.0
2018-Aug-12 16:24N 26°06' W 080°07'0 0.0
2018-Aug-12 15:57N 26°06' W 080°07'0 0.0
2018-Aug-12 15:27N 26°06' W 080°07'0 0.0
2018-Aug-12 14:57N 26°06' W 080°07'0 0.0
2018-Aug-12 14:27N 26°06' W 080°07'0 0.0
2018-Aug-12 13:57N 26°06' W 080°07'0 0.0
2018-Aug-12 13:27N 26°06' W 080°07'0 0.0
2018-Aug-12 13:00N 26°06' W 080°07'0 0.0
2018-Aug-12 12:30N 26°06' W 080°07'0 0.0
2018-Aug-12 12:00N 26°06' W 080°07'0 0.0
2018-Aug-12 11:30N 26°06' W 080°07'0 0.0
2018-Aug-12 11:00N 26°06' W 080°07'0 0.0
2018-Aug-12 10:30N 26°06' W 080°07'0 0.0
2018-Aug-12 10:00N 26°06' W 080°07'0 0.0
2018-Aug-12 09:28N 26°06' W 080°07'0 0.0
2018-Aug-12 08:58N 26°06' W 080°07'0 0.0
2018-Aug-12 08:28N 26°06' W 080°07'0 0.0
2018-Aug-12 07:55N 26°06' W 080°07'0 0.0
2018-Aug-12 07:28N 26°06' W 080°07'0 0.0
2018-Aug-12 06:58N 26°06' W 080°07'0 0.0
2018-Aug-12 06:28N 26°06' W 080°07'0 0.0
2018-Aug-12 05:58N 26°06' W 080°07'0 0.0
2018-Aug-12 05:28N 26°06' W 080°07'0 0.0
2018-Aug-12 04:58N 26°06' W 080°07'0 0.0
2018-Aug-12 04:30N 26°06' W 080°07'1 2.0
2018-Aug-12 04:00N 26°06' W 080°06'3 5.7
2018-Aug-12 03:30N 26°04' W 080°04'3 6.7
2018-Aug-12 03:00N 26°00' W 080°04'3 6.6
2018-Aug-12 02:30N 25°57' W 080°04'3 6.5
2018-Aug-12 02:00N 25°54' W 080°04'4 7.1
2018-Aug-12 01:30N 25°50' W 080°04'4 8.2
2018-Aug-12 01:00N 25°46' W 080°03'611.7
2018-Aug-12 00:30N 25°40' W 080°02'611.8
2018-Aug-12 00:00N 25°35' W 080°01'611.9
2018-Aug-11 23:30N 25°29' W 080°01'3711.0
2018-Aug-11 20:11N 24°56' W 080°19'311.1
2018-Aug-11 19:58N 24°54' W 080°21'511.1
2018-Aug-11 19:30N 24°51' W 080°25'611.1
2018-Aug-11 18:59N 24°48' W 080°30'  
2018-Aug-08 01:45N 29°21' W 094°46'0 0.5
2018-Aug-08 01:17N 29°21' W 094°46'0 0.1
2018-Aug-08 00:57N 29°21' W 094°46'0 0.0
2018-Aug-08 00:27N 29°21' W 094°46'0 0.0
2018-Aug-07 21:03N 29°21' W 094°46'0 0.0
2018-Aug-07 20:36N 29°21' W 094°46'0 0.0
2018-Aug-07 20:30N 29°21' W 094°46'0 0.0
2018-Aug-07 19:57N 29°21' W 094°46'0 0.0
2018-Aug-07 19:30N 29°21' W 094°46'0 0.0
2018-Aug-07 18:51N 29°21' W 094°46'0 0.0
2018-Aug-07 18:27N 29°21' W 094°46'0 0.0
2018-Aug-07 17:51N 29°21' W 094°46'0 0.0
2018-Aug-07 17:27N 29°21' W 094°46'0 0.0
2018-Aug-07 16:54N 29°21' W 094°46'0 0.1
2018-Aug-07 16:30N 29°21' W 094°46'0 0.0
2018-Aug-07 16:00N 29°21' W 094°46'0 0.0
2018-Aug-07 15:30N 29°21' W 094°46'0 0.2
2018-Aug-07 14:57N 29°21' W 094°46'0 0.2
2018-Aug-07 14:18N 29°21' W 094°46'0 0.1
2018-Aug-07 14:00N 29°21' W 094°46'0 0.0
2018-Aug-07 13:30N 29°21' W 094°46'3 5.9
2018-Aug-07 13:01N 29°23' W 094°49'7 8.4
2018-Aug-07 12:12N 29°29' W 094°52'2 8.4
2018-Aug-07 12:01N 29°31' W 094°53'4 8.1
2018-Aug-07 11:31N 29°34' W 094°55'4 8.0
2018-Aug-07 10:59N 29°38' W 094°58'4 7.9
2018-Aug-07 10:31N 29°41' W 094°59'3 6.5
2018-Aug-07 10:00N 29°44' W 095°02'4 7.0
2018-Aug-07 09:29N 29°46' W 095°05'3 6.7
2018-Aug-07 08:59N 29°44' W 095°08'3 5.6
2018-Aug-07 08:24N 29°45' W 095°12'0 0.1
2018-Aug-07 08:00N 29°45' W 095°12'0 0.0
2018-Aug-07 01:44N 29°45' W 095°12'0 0.0
2018-Aug-06 15:20N 29°45' W 095°12'0 0.0
2018-Aug-06 14:50N 29°45' W 095°12'  

Dump ship's entire track history